Terminal Aerodrome Forecast
Issued by NWS Nashville, TN

Home | Current Version | Previous Version | Text Only | Print | Product List | Glossary On
Versions: 1 2 3 4 5 6 7 8 9 10 11 12 13 14 15 16 17 18 19 20 21 22 23 24 25 26 27 28 29 30 31 32 33 34
221
FTUS44 KOHX 182322
TAFCSV
TAF
KCSV 182322Z 1900/1924 00000KT P6SM OVC250
     FM191000 12003KT 6SM -RA BR OVC020
     FM191700 14007KT 4SM -RA BR OVC015
     FM192200 14007KT 4SM -RA BR OVC007=

USA.gov is the U.S. government's official web portal to all federal, state and local government web resources and services.